IN-0010 weather

Walong Advanced Landing Ground
Arunachal Pradesh, India

Public forecast

Using degrees Celsius for public forecast. Weather courtesy of forecast.io.

METAR (pilot weather report)

Closest report is Dibrugarh Airport, 113.2 nm (209.7 km) WSW. Retrieved 2019/01/20 02:30 UTC (25 minutes ago):

VEMN 200230Z 00000KT 4000 BR FEW100 13/10 Q1018 NOSIG

TAF (pilot weather forecast)

Forecast is more than 12 hours old.

Closest forecast is Jorhat Airport, 173.3 nm (320.9 km) WSW. Retrieved 2019/01/19 12:30 UTC (14 hours ago):

TAF VEJT 190930Z 1912/2000 VRB02KT 5000 BR SKC BECMG 1916/1918 3000 BR BECMG 1920/1922 1500 BR BECMG 1923/2000 0800 FG